Latest METARs, TAFs and NOTAMs for LSGG


---------------------------------------------------------------------------
	(OBSERVATIONS)
LSGG 101550Z VRB03KT 9999 VCSH FEW008 SCT030 BKN045 05/04 Q1026
    NOSIG=
LSGG 101520Z 12003KT 9000 -SHRA FEW015 SCT025 BKN035 06/04 Q1026
    NOSIG=
LSGG 101450Z 08006KT 9999 -SHRA FEW015 SCT030 BKN045 06/04 Q1026
    NOSIG=
LSGG 101420Z 12004KT 080V140 9999 -SHRA FEW010 SCT020 BKN050
    06/04 Q1026 NOSIG=
LSGG 101350Z 13005KT 090V150 9999 -SHRA FEW018 SCT035 BKN050
    07/04 Q1026 NOSIG=
LSGG 101320Z 12005KT 9999 -SHRA FEW015 SCT035 BKN050 07/04 Q1026
    NOSIG=
---------------------------------------------------------------------------
	(FC)
Sorry, FC For LSGG Not Found
---------------------------------------------------------------------------
	(TERMINAL AREA FORECAST)
LSGG 101425Z 1015/1121 VRB03KT 9999 FEW015 SCT020 BKN030
    TX06/1015Z TN02/1106Z TX06/1114Z=
---------------------------------------------------------------------------
	(NOTAMS)


LSGG A0573/18 CRANES 2.0KM 194DEG GEO ARP LSGG, MARKED, LGTD,
    461315N0060610E, 70.0M / 229.7FT AGL, 488.0M / 1601.1FT AMSL.
    02 NOV 12:32 2018 UNTIL PERM. CREATED: 02 NOV 12:32 2018

LSGG A0574/18 CRANE 1.7KM 134DEG GEO ARP LSGG, MARKED, LGTD,
    461339N0060731E, 50.0M / 164.1FT AGL, 507.0M / 1663.4FT AMSL.
    02 NOV 12:48 2018 UNTIL 18 JAN 23:59 2020 ESTIMATED. CREATED:
    02 NOV 12:48 2018

LSGG A0603/18 TRIGGER NOTAM - AIP AIRAC AMDT 001/2019: ILS RWY
    22 OCA(H) CAT II 2.5 PCT MISSED APCH GRADIENT WITHDRAWN.
    03 JAN 00:00 2019 UNTIL 17 JAN 23:59 2019. CREATED: 22 NOV
    07:00 2018

LSGG A0620/18 BUSINESS/GA ACFT ABV 24M WINGSPAN 3 NIGHTS STOP
    MAX ALLOWED EXC HOME BASED OPR. 20 DEC 05:00 2018 UNTIL 15
    JAN 22:59 2019. CREATED: 30 NOV 07:59 2018

LSGG A0621/18 AD NOT TO BE PLANNED FOR DIV OR ALTN. SAT SUN H24,
    15 DEC 00:00 2018 UNTIL 14 APR 23:59 2019. CREATED: 30 NOV
    07:59 2018

LSGG A0622/18 POSITIONING FLT NOT AUTH FOR WORLD ECONOMIC FORUM
    DAVOS DUE TO PRKG CONGESTION. 19 JAN 05:00 2019 UNTIL 27
    JAN 22:59 2019. CREATED: 30 NOV 07:59 2018

LSGG A0631/18 GENEVA TMA: TEST, TRG AND SCHOOL FLT PROHIBITED
    DUE TO AIRSPACE CONGESTION. SAT SUN 0400-2330, 08 DEC 04:00
    2018 UNTIL 30 MAR 23:30 2019. CREATED: 01 DEC 10:29 2018

LSGG A0632/18 GENEVA TMA: TEST, TRG AND SCHOOL FLT PROHIBITED
    DUE TO AIRSPACE CONGESTION. SAT SUN 0300-2230, 31 MAR 03:00
    2019 UNTIL 21 APR 22:30 2019. CREATED: 01 DEC 10:29 2018

LSGG A0639/18 ARR IFR ACFT WITH APCH CAT A, EXC TURBINE ACFT,
    FORBIDDEN DUE TO TFC CONGESTION. SAT SUN 0600-1800, 31 MAR
    06:00 2019 UNTIL 21 APR 18:00 2019. CREATED: 04 DEC 14:26
    2018

LSGG A0640/18 DEP IFR ACFT WITH APCH CAT A, EXC TURBINE ACFT,
    FORBIDDEN DUE TO TFC CONGESTION. SAT SUN 0600-2200, 31 MAR
    06:00 2019 UNTIL 21 APR 22:00 2019. CREATED: 04 DEC 14:28
    2018

LSGG A0641/18 DEP IFR ACFT WITH APCH CAT A, EXC TURBINE ACFT,
    FORBIDDEN DUE TO TFC CONGESTION. SAT SUN 0700-2300, 08 DEC
    07:00 2018 UNTIL 30 MAR 23:00 2019. CREATED: 04 DEC 14:31
    2018

LSGG A0643/18 ARR IFR ACFT WITH APCH CAT A, EXC TURBINE ACFT,
    FORBIDDEN DUE TO TFC CONGESTION. SAT SUN 0700-1900, 08 DEC
    07:00 2018 UNTIL 30 MAR 19:00 2019. CREATED: 04 DEC 14:58
    2018

LSGG A0653/18 CRANES 4.3KM 345DEG GEO ARP LSGG, MARKED, LGTD,
    461630N0060540E, 51.0M / 167.4FT AGL, 528.6M / 1734.0FT AMSL.
    07 DEC 09:35 2018 UNTIL 29 MAR 23:59 2019 ESTIMATED. CREATED:
    07 DEC 09:35 2018

LSGG A0655/18 USE OF CONC RWY 04/22 FOR TEST, TRG AND SCHOOL
    FLT PROHIBITED DUE TO RWY CONGESTION. SAT 0500-2359 SUN 0000-2259,
    08 DEC 05:00 2018 UNTIL 30 MAR 23:59 2019. CREATED: 07 DEC
    12:28 2018

LSGG A0657/18 USE OF CONC RWY 04/22 FOR TEST, TRG AND SCHOOL
    FLT PROHIBITED DUE TO RWY CONGESTION. SAT 0400-2359 SUN 0000-2159,
    31 MAR 00:00 2019 UNTIL 21 APR 21:59 2019. CREATED: 07 DEC
    12:33 2018

LSGG V0318/18 [US DOD PROCEDURAL NOTAM] INSTRUMENT APPROACH PROCEDURE
    NOT AUTHORIZED ILS RWY 23. 08 NOV 09:35 2018 UNTIL 03 JAN
    23:59 2019. CREATED: 08 NOV 09:35 2018

---------------------------------------------------------------------------